Kotel'Nikovo, Russia
Current Conditions -  °F | °C
As of 8:00 AM on Thursday 23 Oct 2014 (Local Time) from URWW Reporting Station
Overcast Overcast  
Wind Chill: 20°   Ceiling: 3000
Heat Index: 30°   Visibility: 6mi
Dew Point: 23°   Wind: 13mph
Humidity: 75%   Direction: 30°NNE
Pressure: 30.06"   Gusts: NA
Location:  47.63°N, 43.15°E
Report Text: URWW 230500Z 03006MPS 9999 OVC030 M01/M05 Q1018 NOSIG RMKSC070
Loading
Personal Weather Stations






























Interactive Weather Map
Tropical Storm Tracking
New forecast layout! Learn more

10-Day Weather Forecast

Advertisements
Track Severe Weather on mobile